Time,TemperatureF,DewpointF,PressureIn,WindDirection,WindDirectionDegrees,WindSpeedMPH,WindSpeedGustMPH,Humidity,HourlyPrecipIn,Conditions,Clouds,dailyrainin,SoftwareType,DateUTC
2013-08-19 00:02:00,60.7,58.0,30.12,ESE,111,0.0,0.0,92,0.00,,,0.00,weatherlink.com 1.10,2013-08-19 04:02:00,
2013-08-19 00:17:00,60.5,59.0,30.12,ESE,111,0.0,0.0,93,0.00,,,0.00,weatherlink.com 1.10,2013-08-19 04:17:00,
2013-08-19 00:32:00,60.4,58.0,30.12,ESE,111,1.0,1.0,93,0.00,,,0.00,weatherlink.com 1.10,2013-08-19 04:32:00,
2013-08-19 00:47:00,60.4,58.0,30.12,ESE,111,0.0,1.0,92,0.00,,,0.00,weatherlink.com 1.10,2013-08-19 04:47:00,
2013-08-19 01:03:00,59.9,58.0,30.12,ESE,111,0.0,1.0,94,0.00,,,0.00,weatherlink.com 1.10,2013-08-19 05:03:00,
2013-08-19 01:18:00,59.5,58.0,30.12,ESE,111,0.0,0.0,94,0.00,,,0.00,weatherlink.com 1.10,2013-08-19 05:18:00,
2013-08-19 01:33:00,59.5,58.0,30.12,ESE,111,0.0,1.0,95,0.00,,,0.00,weatherlink.com 1.10,2013-08-19 05:33:00,
2013-08-19 01:48:00,59.6,59.0,30.12,ESE,111,1.0,2.0,96,0.00,,,0.00,weatherlink.com 1.10,2013-08-19 05:48:00,
2013-08-19 02:03:00,59.5,58.0,30.12,ESE,111,0.0,1.0,96,0.00,,,0.00,weatherlink.com 1.10,2013-08-19 06:03:00,
2013-08-19 02:18:00,59.4,58.0,30.11,ESE,111,0.0,1.0,95,0.00,,,0.00,weatherlink.com 1.10,2013-08-19 06:18:00,
2013-08-19 02:33:00,58.8,57.0,30.11,ESE,111,0.0,0.0,95,0.00,,,0.00,weatherlink.com 1.10,2013-08-19 06:33:00,
2013-08-19 02:48:00,58.4,57.0,30.11,ESE,111,0.0,0.0,95,0.00,,,0.00,weatherlink.com 1.10,2013-08-19 06:48:00,
2013-08-19 03:03:00,58.1,57.0,30.11,ESE,111,0.0,0.0,96,0.00,,,0.00,weatherlink.com 1.10,2013-08-19 07:03:00,
2013-08-19 03:18:00,58.3,57.0,30.11,ESE,111,0.0,1.0,96,0.00,,,0.00,weatherlink.com 1.10,2013-08-19 07:18:00,
2013-08-19 03:33:00,58.0,57.0,30.11,ESE,111,0.0,1.0,96,0.00,,,0.00,weatherlink.com 1.10,2013-08-19 07:33:00,
2013-08-19 03:48:00,57.6,57.0,30.11,ESE,111,0.0,1.0,96,0.00,,,0.00,weatherlink.com 1.10,2013-08-19 07:48:00,
2013-08-19 04:03:00,57.3,56.0,30.11,ESE,111,0.0,1.0,96,0.00,,,0.00,weatherlink.com 1.10,2013-08-19 08:03:00,
2013-08-19 04:18:00,57.5,57.0,30.11,ESE,111,0.0,1.0,97,0.00,,,0.00,weatherlink.com 1.10,2013-08-19 08:18:00,
2013-08-19 04:33:00,57.4,56.0,30.10,ESE,111,0.0,1.0,96,0.00,,,0.00,weatherlink.com 1.10,2013-08-19 08:33:00,
2013-08-19 04:48:00,57.3,57.0,30.11,ESE,111,0.0,1.0,97,0.00,,,0.00,weatherlink.com 1.10,2013-08-19 08:48:00,
2013-08-19 05:03:00,57.3,57.0,30.10,ESE,111,1.0,2.0,97,0.00,,,0.00,weatherlink.com 1.10,2013-08-19 09:03:00,
2013-08-19 05:18:00,57.4,57.0,30.11,ESE,111,0.0,2.0,97,0.00,,,0.00,weatherlink.com 1.10,2013-08-19 09:18:00,
2013-08-19 05:33:00,57.1,56.0,30.11,ESE,111,0.0,0.0,96,0.00,,,0.00,weatherlink.com 1.10,2013-08-19 09:33:00,
2013-08-19 05:48:00,56.5,55.0,30.11,ESE,111,0.0,0.0,96,0.00,,,0.00,weatherlink.com 1.10,2013-08-19 09:48:00,
2013-08-19 06:03:00,56.4,55.0,30.11,ESE,111,0.0,0.0,96,0.00,,,0.00,weatherlink.com 1.10,2013-08-19 10:03:00,
2013-08-19 06:18:00,56.6,56.0,30.11,ESE,111,0.0,1.0,97,0.00,,,0.00,weatherlink.com 1.10,2013-08-19 10:18:00,
2013-08-19 06:33:00,57.2,56.0,30.12,ESE,111,1.0,1.0,97,0.00,,,0.00,weatherlink.com 1.10,2013-08-19 10:33:00,
2013-08-19 06:48:00,57.2,56.0,30.12,ESE,111,0.0,1.0,97,0.00,,,0.00,weatherlink.com 1.10,2013-08-19 10:48:00,
2013-08-19 07:03:00,56.8,56.0,30.12,ESE,111,0.0,1.0,97,0.00,,,0.00,weatherlink.com 1.10,2013-08-19 11:03:00,
2013-08-19 07:18:00,56.8,56.0,30.12,ESE,111,0.0,1.0,97,0.00,,,0.00,weatherlink.com 1.10,2013-08-19 11:18:00,
2013-08-19 07:33:00,57.3,57.0,30.12,ESE,111,0.0,0.0,97,0.00,,,0.00,weatherlink.com 1.10,2013-08-19 11:33:00,
2013-08-19 07:48:00,58.7,58.0,30.12,ESE,111,0.0,0.0,97,0.00,,,0.00,weatherlink.com 1.10,2013-08-19 11:48:00,
2013-08-19 08:03:00,60.3,60.0,30.12,ESE,111,1.0,1.0,97,0.00,,,0.00,weatherlink.com 1.10,2013-08-19 12:03:00,
2013-08-19 08:18:00,61.3,60.0,30.12,ESE,111,0.0,1.0,94,0.00,,,0.00,weatherlink.com 1.10,2013-08-19 12:18:00,
2013-08-19 08:33:00,62.6,60.0,30.12,SSE,160,1.0,2.0,91,0.00,,,0.00,weatherlink.com 1.10,2013-08-19 12:33:00,
2013-08-19 08:48:00,64.0,61.0,30.12,WSW,253,0.0,2.0,89,0.00,,,0.00,weatherlink.com 1.10,2013-08-19 12:48:00,
2013-08-19 09:03:00,65.3,61.0,30.12,SSW,194,0.0,2.0,87,0.00,,,0.00,weatherlink.com 1.10,2013-08-19 13:03:00,
2013-08-19 09:18:00,67.0,61.0,30.12,West,281,1.0,7.0,81,0.00,,,0.00,weatherlink.com 1.10,2013-08-19 13:18:00,
2013-08-19 09:33:00,67.7,61.0,30.12,West,260,1.0,3.0,80,0.00,,,0.00,weatherlink.com 1.10,2013-08-19 13:33:00,
2013-08-19 09:48:00,68.8,62.0,30.12,WSW,257,0.0,3.0,80,0.00,,,0.00,weatherlink.com 1.10,2013-08-19 13:48:00,
2013-08-19 10:04:00,70.0,62.0,30.12,SW,224,2.0,5.0,76,0.00,,,0.00,weatherlink.com 1.10,2013-08-19 14:04:00,
2013-08-19 10:19:00,70.2,63.0,30.12,WSW,248,2.0,3.0,77,0.00,,,0.00,weatherlink.com 1.10,2013-08-19 14:19:00,
2013-08-19 10:34:00,70.8,63.0,30.12,NW,307,0.0,4.0,76,0.00,,,0.00,weatherlink.com 1.10,2013-08-19 14:34:00,
2013-08-19 10:49:00,73.1,65.0,30.12,NNW,336,1.0,4.0,75,0.00,,,0.00,weatherlink.com 1.10,2013-08-19 14:49:00,
2013-08-19 11:04:00,74.8,66.0,30.12,NNW,335,1.0,2.0,74,0.00,,,0.00,weatherlink.com 1.10,2013-08-19 15:04:00,
2013-08-19 11:19:00,74.9,64.0,30.11,NNW,331,1.0,7.0,68,0.00,,,0.00,weatherlink.com 1.10,2013-08-19 15:19:00,
2013-08-19 11:34:00,76.2,64.0,30.11,ENE,67,1.0,4.0,66,0.00,,,0.00,weatherlink.com 1.10,2013-08-19 15:34:00,
2013-08-19 11:49:00,76.5,62.0,30.10,SW,224,3.0,5.0,62,0.00,,,0.00,weatherlink.com 1.10,2013-08-19 15:49:00,
2013-08-19 12:04:00,77.7,61.0,30.10,SW,218,2.0,3.0,57,0.00,,,0.00,weatherlink.com 1.10,2013-08-19 16:04:00,
2013-08-19 12:19:00,78.2,63.0,30.10,NNE,23,3.0,5.0,59,0.00,,,0.00,weatherlink.com 1.10,2013-08-19 16:19:00,
2013-08-19 12:34:00,78.4,62.0,30.10,ENE,64,2.0,5.0,58,0.00,,,0.00,weatherlink.com 1.10,2013-08-19 16:34:00,
2013-08-19 12:49:00,78.4,63.0,30.10,North,5,0.0,7.0,59,0.00,,,0.00,weatherlink.com 1.10,2013-08-19 16:49:00,
2013-08-19 13:04:00,78.8,64.0,30.09,South,180,1.0,7.0,61,0.00,,,0.00,weatherlink.com 1.10,2013-08-19 17:04:00,
2013-08-19 13:19:00,77.8,62.0,30.10,SSW,197,0.0,2.0,59,0.00,,,0.00,weatherlink.com 1.10,2013-08-19 17:19:00,
2013-08-19 13:34:00,79.4,62.0,30.10,SW,221,1.0,6.0,56,0.00,,,0.00,weatherlink.com 1.10,2013-08-19 17:34:00,
2013-08-19 13:49:00,78.9,61.0,30.09,West,269,1.0,3.0,54,0.00,,,0.00,weatherlink.com 1.10,2013-08-19 17:49:00,
2013-08-19 14:04:00,79.1,62.0,30.09,West,277,0.0,5.0,56,0.00,,,0.00,weatherlink.com 1.10,2013-08-19 18:04:00,
2013-08-19 14:19:00,79.9,61.0,30.09,SSW,211,1.0,6.0,52,0.00,,,0.00,weatherlink.com 1.10,2013-08-19 18:19:00,
2013-08-19 14:34:00,80.6,61.0,30.08,North,360,3.0,7.0,51,0.00,,,0.00,weatherlink.com 1.10,2013-08-19 18:34:00,
2013-08-19 14:49:00,80.5,62.0,30.08,SW,219,1.0,4.0,53,0.00,,,0.00,weatherlink.com 1.10,2013-08-19 18:49:00,
2013-08-19 15:04:00,80.7,62.0,30.08,North,11,4.0,7.0,53,0.00,,,0.00,weatherlink.com 1.10,2013-08-19 19:04:00,
2013-08-19 15:19:00,80.6,60.0,30.07,West,263,1.0,5.0,49,0.00,,,0.00,weatherlink.com 1.10,2013-08-19 19:19:00,
2013-08-19 15:34:00,80.7,64.0,30.07,NNE,14,3.0,5.0,57,0.00,,,0.00,weatherlink.com 1.10,2013-08-19 19:34:00,
2013-08-19 15:49:00,81.0,61.0,30.07,NNE,29,2.0,5.0,51,0.00,,,0.00,weatherlink.com 1.10,2013-08-19 19:49:00,
2013-08-19 16:04:00,80.9,62.0,30.07,WSW,249,3.0,4.0,53,0.00,,,0.00,weatherlink.com 1.10,2013-08-19 20:04:00,
2013-08-19 16:19:00,81.7,63.0,30.07,SW,232,1.0,7.0,53,0.00,,,0.00,weatherlink.com 1.10,2013-08-19 20:19:00,
2013-08-19 16:34:00,82.0,63.0,30.06,NNW,331,1.0,4.0,52,0.00,,,0.00,weatherlink.com 1.10,2013-08-19 20:34:00,
2013-08-19 16:49:00,82.4,62.0,30.06,West,273,4.0,7.0,50,0.00,,,0.00,weatherlink.com 1.10,2013-08-19 20:49:00,
2013-08-19 17:04:00,82.1,63.0,30.05,NNW,348,1.0,6.0,53,0.00,,,0.00,weatherlink.com 1.10,2013-08-19 21:04:00,
2013-08-19 17:20:00,82.2,62.0,30.05,West,271,1.0,4.0,51,0.00,,,0.00,weatherlink.com 1.10,2013-08-19 21:20:00,
2013-08-19 17:35:00,82.4,63.0,30.05,SW,235,1.0,3.0,52,0.00,,,0.00,weatherlink.com 1.10,2013-08-19 21:35:00,
2013-08-19 17:50:00,82.2,64.0,30.05,NW,324,1.0,5.0,54,0.00,,,0.00,weatherlink.com 1.10,2013-08-19 21:50:00,
2013-08-19 18:05:00,82.4,63.0,30.05,WNW,287,1.0,5.0,53,0.00,,,0.00,weatherlink.com 1.10,2013-08-19 22:05:00,
2013-08-19 18:20:00,82.0,63.0,30.05,WSW,257,0.0,4.0,53,0.00,,,0.00,weatherlink.com 1.10,2013-08-19 22:20:00,
2013-08-19 18:35:00,82.3,65.0,30.04,WSW,248,0.0,2.0,57,0.00,,,0.00,weatherlink.com 1.10,2013-08-19 22:35:00,
2013-08-19 18:50:00,82.4,63.0,30.04,SW,223,0.0,2.0,52,0.00,,,0.00,weatherlink.com 1.10,2013-08-19 22:50:00,
2013-08-19 19:05:00,81.3,65.0,30.04,SW,223,1.0,1.0,58,0.00,,,0.00,weatherlink.com 1.10,2013-08-19 23:05:00,
2013-08-19 19:20:00,80.2,65.0,30.04,SW,223,0.0,1.0,61,0.00,,,0.00,weatherlink.com 1.10,2013-08-19 23:20:00,
2013-08-19 19:35:00,78.6,65.0,30.03,SW,223,0.0,1.0,64,0.00,,,0.00,weatherlink.com 1.10,2013-08-19 23:35:00,
2013-08-19 19:50:00,77.4,66.0,30.04,SW,223,0.0,1.0,69,0.00,,,0.00,weatherlink.com 1.10,2013-08-19 23:50:00,
2013-08-19 20:05:00,76.4,67.0,30.04,SW,223,0.0,0.0,73,0.00,,,0.00,weatherlink.com 1.10,2013-08-20 00:05:00,
2013-08-19 20:20:00,74.9,67.0,30.04,SW,223,0.0,1.0,75,0.00,,,0.00,weatherlink.com 1.10,2013-08-20 00:20:00,
2013-08-19 20:35:00,73.5,66.0,30.04,SW,223,0.0,0.0,77,0.00,,,0.00,weatherlink.com 1.10,2013-08-20 00:35:00,
2013-08-19 20:50:00,72.0,66.0,30.04,SW,223,1.0,1.0,80,0.00,,,0.00,weatherlink.com 1.10,2013-08-20 00:50:00,
2013-08-19 21:05:00,70.9,65.0,30.04,SW,223,0.0,1.0,81,0.00,,,0.00,weatherlink.com 1.10,2013-08-20 01:05:00,
2013-08-19 21:20:00,69.9,65.0,30.05,SW,223,1.0,1.0,84,0.00,,,0.00,weatherlink.com 1.10,2013-08-20 01:20:00,
2013-08-19 21:35:00,69.1,64.0,30.05,SW,223,1.0,2.0,84,0.00,,,0.00,weatherlink.com 1.10,2013-08-20 01:35:00,
2013-08-19 21:50:00,68.3,64.0,30.06,SW,223,1.0,1.0,86,0.00,,,0.00,weatherlink.com 1.10,2013-08-20 01:50:00,
2013-08-19 22:05:00,67.7,64.0,30.06,SW,223,0.0,1.0,87,0.00,,,0.00,weatherlink.com 1.10,2013-08-20 02:05:00,
2013-08-19 22:20:00,67.1,64.0,30.05,SW,223,0.0,1.0,89,0.00,,,0.00,weatherlink.com 1.10,2013-08-20 02:20:00,
2013-08-19 22:35:00,66.9,64.0,30.06,SW,223,0.0,0.0,90,0.00,,,0.00,weatherlink.com 1.10,2013-08-20 02:35:00,
2013-08-19 22:50:00,66.5,64.0,30.06,SW,223,0.0,1.0,91,0.00,,,0.00,weatherlink.com 1.10,2013-08-20 02:50:00,
2013-08-19 23:05:00,66.1,64.0,30.06,SW,223,0.0,0.0,91,0.00,,,0.00,weatherlink.com 1.10,2013-08-20 03:05:00,
2013-08-19 23:20:00,65.7,63.0,30.06,SW,223,0.0,1.0,92,0.00,,,0.00,weatherlink.com 1.10,2013-08-20 03:20:00,
2013-08-19 23:35:00,65.8,64.0,30.06,SW,223,0.0,1.0,94,0.00,,,0.00,weatherlink.com 1.10,2013-08-20 03:35:00,
2013-08-19 23:50:00,65.3,63.0,30.07,SW,223,0.0,0.0,93,0.00,,,0.00,weatherlink.com 1.10,2013-08-20 03:50:00,